CPX793 Details

Departure: Kingsford Smith International Airport (YSSY)
Arrival: Auckland International Airport (NZAA)
Route: TESAT L521 LUNBI AA


Current Weather Information
YSSY 260030Z 26017KT CAVOK 22/03 Q1016 FM0030 MOD TURB BLW 5000FT
NZAA 260030Z AUTO 03016KT 9999 SCT039/// 24/15 Q1024 NOSIG